createdAt,value
2019-05-21T00:00:05.453Z,96380.30
2019-05-21T00:02:40.943Z,96376.34
2019-05-21T00:05:15.229Z,96386.06
2019-05-21T00:07:49.695Z,96380.47
2019-05-21T00:10:22.691Z,96384.64
2019-05-21T00:12:56.949Z,96384.80
2019-05-21T00:15:31.113Z,96380.70
2019-05-21T00:18:05.657Z,96380.70
2019-05-21T00:20:38.807Z,96380.70
2019-05-21T00:23:13.276Z,96386.83
2019-05-21T00:25:47.669Z,96379.95
2019-05-21T00:28:40.688Z,96378.59
2019-05-21T00:32:08.476Z,96386.02
2019-05-21T00:35:49.271Z,96388.42
2019-05-21T00:39:16.748Z,96392.19
2019-05-21T00:42:02.867Z,96385.23
2019-05-21T00:44:41.314Z,96386.19
2019-05-21T00:47:16.351Z,96388.56
2019-05-21T00:49:50.744Z,96401.09
2019-05-21T00:52:23.647Z,96396.69
2019-05-21T00:54:57.942Z,96400.02
2019-05-21T00:57:32.274Z,96404.31
2019-05-21T01:00:07.392Z,96398.54
2019-05-21T01:02:41.809Z,96398.72
2019-05-21T01:05:14.711Z,96401.70
2019-05-21T01:07:48.933Z,96409.84
2019-05-21T01:10:23.073Z,96405.95
2019-05-21T01:12:57.315Z,96411.84
2019-05-21T01:15:31.765Z,96411.84
2019-05-21T01:18:04.629Z,96410.97
2019-05-21T01:20:38.777Z,96404.13
2019-05-21T01:23:11.666Z,96410.02
2019-05-21T01:25:45.907Z,96411.76
2019-05-21T01:28:18.988Z,96419.55
2019-05-21T01:30:51.691Z,96417.41
2019-05-21T01:33:25.914Z,96419.39
2019-05-21T01:36:00.123Z,96417.77
2019-05-21T01:38:34.648Z,96422.75
2019-05-21T01:41:09.128Z,96420.48
2019-05-21T01:43:43.631Z,96437.73
2019-05-21T01:46:18.284Z,96437.73
2019-05-21T01:48:52.664Z,96435.34
2019-05-21T01:51:27.109Z,96436.73
2019-05-21T01:54:01.617Z,96443.37
2019-05-21T01:56:36.107Z,96443.37
2019-05-21T01:59:10.629Z,96439.98
2019-05-21T02:01:43.650Z,96439.98
2019-05-21T02:04:17.885Z,96445.62
2019-05-21T02:06:50.786Z,96444.22
2019-05-21T02:09:24.936Z,96438.86
2019-05-21T02:11:59.268Z,96433.73
2019-05-21T02:14:33.761Z,96437.66
2019-05-21T02:17:08.113Z,96440.66
2019-05-21T02:19:42.629Z,96436.75
2019-05-21T02:22:16.949Z,96436.75
2019-05-21T02:24:52.318Z,96438.50
2019-05-21T02:27:26.741Z,96435.98
2019-05-21T02:30:00.952Z,96437.92
2019-05-21T02:32:35.634Z,96436.63
2019-05-21T02:35:09.949Z,96442.19
2019-05-21T02:37:44.256Z,96437.69
2019-05-21T02:40:20.664Z,96427.63
2019-05-21T02:42:55.345Z,96435.02
2019-05-21T02:45:29.770Z,96432.69
2019-05-21T02:48:02.798Z,96437.35
2019-05-21T02:50:36.917Z,96440.55
2019-05-21T02:53:11.271Z,96444.95
2019-05-21T02:55:45.655Z,96434.80
2019-05-21T02:58:18.667Z,96433.83
2019-05-21T03:01:11.541Z,96433.14
2019-05-21T03:03:45.951Z,96439.67
2019-05-21T03:06:20.313Z,96437.52
2019-05-21T03:08:54.660Z,96437.52
2019-05-21T03:11:29.115Z,96438.64
2019-05-21T03:14:03.627Z,96436.89
2019-05-21T03:16:38.939Z,96436.89
2019-05-21T03:19:16.525Z,96448.37
2019-05-21T03:21:49.270Z,96440.09
2019-05-21T03:24:23.749Z,96440.84
2019-05-21T03:26:58.125Z,96437.53
2019-05-21T03:29:32.634Z,96435.62
2019-05-21T03:32:06.923Z,96434.74
2019-05-21T03:36:32.500Z,96432.78
2019-05-21T03:38:53.301Z,96430.58
2019-05-21T03:41:27.717Z,96431.88
2019-05-21T03:44:01.944Z,96431.88
2019-05-21T03:46:36.314Z,96437.95
2019-05-21T03:49:10.753Z,96437.95
2019-05-21T03:51:43.646Z,96433.78
2019-05-21T03:54:17.865Z,96444.25
2019-05-21T03:56:50.798Z,96444.07
2019-05-21T03:59:25.080Z,96452.86
2019-05-21T04:02:00.505Z,96441.87
2019-05-21T04:04:35.105Z,96441.87
2019-05-21T04:07:09.536Z,96443.74
2019-05-21T04:09:43.939Z,96443.74
2019-05-21T04:12:18.273Z,96462.20
2019-05-21T04:14:56.857Z,96466.61
2019-05-21T04:17:39.803Z,96478.52
2019-05-21T04:20:14.272Z,96475.68
2019-05-21T04:22:55.744Z,96474.98
2019-05-21T04:25:28.686Z,96470.66
2019-05-21T04:28:03.263Z,96475.10
2019-05-21T04:30:37.691Z,96476.36
2019-05-21T04:33:12.868Z,96491.20
2019-05-21T04:35:47.318Z,96493.27
2019-05-21T04:38:21.690Z,96493.27
2019-05-21T04:40:54.668Z,96493.60
2019-05-21T04:43:28.939Z,96495.45
2019-05-21T04:46:03.405Z,96495.45
2019-05-21T04:48:38.087Z,96491.79
2019-05-21T04:51:13.962Z,96492.39
2019-05-21T04:53:51.720Z,96497.45
2019-05-21T04:56:27.309Z,96497.45
2019-05-21T04:59:01.714Z,96499.44
2019-05-21T05:01:35.945Z,96501.97
2019-05-21T05:04:10.584Z,96502.01
2019-05-21T05:06:44.895Z,96504.36
2019-05-21T05:09:19.269Z,96508.80
2019-05-21T05:11:53.641Z,96508.80
2019-05-21T05:14:27.955Z,96516.55
2019-05-21T05:17:02.255Z,96517.97
2019-05-21T05:19:36.702Z,96515.66
2019-05-21T05:22:09.698Z,96513.73
2019-05-21T05:24:44.297Z,96524.53
2019-05-21T05:27:18.924Z,96532.16
2019-05-21T05:29:53.275Z,96526.80
2019-05-21T05:32:27.889Z,96533.05
2019-05-21T05:35:02.422Z,96538.42
2019-05-21T05:37:44.320Z,96528.79
2019-05-21T05:40:14.514Z,96536.95
2019-05-21T05:42:49.272Z,96536.95
2019-05-21T05:45:23.946Z,96546.80
2019-05-21T05:47:58.660Z,96553.02
2019-05-21T05:50:36.602Z,96553.02
2019-05-21T05:53:10.945Z,96548.41
2019-05-21T05:55:43.857Z,96556.87
2019-05-21T05:58:17.281Z,96546.86
2019-05-21T06:00:51.884Z,96545.35
2019-05-21T06:03:25.101Z,96547.52
2019-05-21T06:06:01.118Z,96549.05
2019-05-21T06:08:35.660Z,96549.16
2019-05-21T06:11:10.346Z,96549.16
2019-05-21T06:13:46.282Z,96540.75
2019-05-21T06:16:21.111Z,96540.72
2019-05-21T06:18:55.736Z,96546.72
2019-05-21T06:21:30.076Z,96546.72
2019-05-21T06:24:04.668Z,96545.45
2019-05-21T06:26:39.288Z,96552.67
2019-05-21T06:29:13.945Z,96552.67
2019-05-21T06:31:48.304Z,96554.39
2019-05-21T06:34:22.940Z,96550.26
2019-05-21T06:36:57.888Z,96566.85
2019-05-21T06:39:32.173Z,96566.85
2019-05-21T06:42:06.685Z,96576.43
2019-05-21T06:44:41.282Z,96581.13
2019-05-21T06:47:15.950Z,96582.48
2019-05-21T06:49:50.641Z,96589.34
2019-05-21T06:52:25.339Z,96589.34
2019-05-21T06:54:59.935Z,96589.11
2019-05-21T06:57:33.217Z,96587.20
2019-05-21T07:00:08.310Z,96590.23
2019-05-21T07:02:42.930Z,96589.25
2019-05-21T07:05:17.761Z,96599.70
2019-05-21T07:07:51.277Z,96599.70
2019-05-21T07:10:25.657Z,96598.41
2019-05-21T07:13:00.297Z,96598.41
2019-05-21T07:15:34.954Z,96598.25
2019-05-21T07:18:09.298Z,96595.28
2019-05-21T07:23:16.946Z,96603.53
2019-05-21T07:25:51.595Z,96601.42
2019-05-21T07:28:26.355Z,96601.42
2019-05-21T07:31:00.954Z,96605.25
2019-05-21T07:33:33.869Z,96607.31
2019-05-21T07:36:07.920Z,96612.66
2019-05-21T07:38:52.639Z,96608.16
2019-05-21T07:41:20.319Z,96607.29
2019-05-21T07:43:55.278Z,96610.86
2019-05-21T07:46:29.692Z,96614.79
2019-05-21T07:49:03.289Z,96619.21
2019-05-21T07:51:37.695Z,96622.95
2019-05-21T07:54:12.299Z,96622.95
2019-05-21T07:56:47.281Z,96625.08
2019-05-21T07:59:21.877Z,96628.47
2019-05-21T08:01:54.874Z,96631.19
2019-05-21T08:04:29.347Z,96632.66
2019-05-21T08:07:05.085Z,96632.96
2019-05-21T08:09:39.781Z,96634.20
2019-05-21T08:12:35.359Z,96634.20
2019-05-21T08:14:49.287Z,96637.19
2019-05-21T08:17:24.140Z,96638.47
2019-05-21T08:20:08.642Z,96643.85
2019-05-21T08:22:35.142Z,96645.75
2019-05-21T08:25:14.232Z,96653.55
2019-05-21T08:27:45.956Z,96653.55
2019-05-21T08:30:20.941Z,96656.53
2019-05-21T08:32:55.708Z,96655.41
2019-05-21T08:35:30.140Z,96655.41
2019-05-21T08:38:06.825Z,96654.08
2019-05-21T08:40:41.281Z,96658.09
2019-05-21T08:43:15.939Z,96649.63
2019-05-21T08:45:51.285Z,96659.01
2019-05-21T08:48:25.715Z,96658.92
2019-05-21T08:51:01.750Z,96655.93
2019-05-21T08:53:35.274Z,96664.88
2019-05-21T08:56:09.860Z,96667.16
2019-05-21T08:58:44.301Z,96667.16
2019-05-21T09:01:18.883Z,96670.47
2019-05-21T09:03:52.088Z,96676.14
2019-05-21T09:06:26.315Z,96676.14
2019-05-21T09:09:00.754Z,96674.57
2019-05-21T09:11:36.869Z,96672.08
2019-05-21T09:14:10.117Z,96675.69
2019-05-21T09:16:44.311Z,96684.95
2019-05-21T09:19:18.940Z,96684.95
2019-05-21T09:21:53.651Z,96688.97
2019-05-21T09:24:28.265Z,96683.92
2019-05-21T09:27:02.829Z,96689.59
2019-05-21T09:29:36.104Z,96684.48
2019-05-21T09:32:10.703Z,96692.11
2019-05-21T09:34:49.122Z,96696.02
2019-05-21T09:37:21.785Z,96698.45
2019-05-21T09:39:56.273Z,96698.45
2019-05-21T09:42:30.646Z,96707.89
2019-05-21T09:45:05.610Z,96707.89
2019-05-21T09:47:38.848Z,96710.72
2019-05-21T09:50:13.811Z,96702.32
2019-05-21T09:52:48.267Z,96705.61
2019-05-21T09:55:23.361Z,96711.48
2019-05-21T09:58:35.278Z,96714.31
2019-05-21T10:01:25.269Z,96715.97
2019-05-21T10:04:00.440Z,96712.65
2019-05-21T10:06:34.941Z,96712.65
2019-05-21T10:09:12.935Z,96718.50
2019-05-21T10:11:47.316Z,96717.02
2019-05-21T10:14:21.716Z,96717.02
2019-05-21T10:16:56.651Z,96723.21
2019-05-21T10:19:31.262Z,96731.00
2019-05-21T10:22:06.189Z,96727.94
2019-05-21T10:24:40.923Z,96736.36
2019-05-21T10:27:15.312Z,96745.30
2019-05-21T10:29:50.953Z,96749.58
2019-05-21T10:32:25.647Z,96739.97
2019-05-21T10:35:00.140Z,96739.97
2019-05-21T10:37:34.722Z,96736.75
2019-05-21T10:40:08.462Z,96738.72
2019-05-21T10:42:42.747Z,96732.72
2019-05-21T10:45:16.250Z,96741.78
2019-05-21T10:47:50.741Z,96739.95
2019-05-21T10:50:25.281Z,96739.95
2019-05-21T10:52:59.737Z,96750.38
2019-05-21T10:55:33.283Z,96752.14
2019-05-21T10:58:07.710Z,96746.53
2019-05-21T11:00:41.279Z,96746.53
2019-05-21T11:03:19.345Z,96732.56
2019-05-21T11:06:09.163Z,96732.56
2019-05-21T11:08:31.941Z,96736.18
2019-05-21T11:11:06.629Z,96738.58
2019-05-21T11:13:42.011Z,96751.67
2019-05-21T11:16:16.658Z,96745.98
2019-05-21T11:18:50.020Z,96745.13
2019-05-21T11:21:23.272Z,96750.31
2019-05-21T11:23:57.959Z,96751.22
2019-05-21T11:26:32.584Z,96751.22
2019-05-21T11:29:07.320Z,96760.48
2019-05-21T11:31:55.756Z,96749.42
2019-05-21T11:34:18.438Z,96754.50
2019-05-21T11:36:52.973Z,96754.26
2019-05-21T11:39:27.319Z,96753.50
2019-05-21T11:42:02.272Z,96754.37
2019-05-21T11:44:36.870Z,96756.31
2019-05-21T11:47:11.301Z,96759.31
2019-05-21T11:49:45.929Z,96765.25
2019-05-21T11:52:20.624Z,96764.48
2019-05-21T11:54:55.965Z,96764.48
2019-05-21T11:57:30.750Z,96767.59
2019-05-21T12:00:04.239Z,96767.59
2019-05-21T12:02:39.762Z,96763.56
2019-05-21T12:05:13.278Z,96765.19
2019-05-21T12:07:47.702Z,96763.59
2019-05-21T12:10:22.276Z,96763.59
2019-05-21T12:12:56.682Z,96761.31
2019-05-21T12:15:31.279Z,96762.50
2019-05-21T12:18:05.674Z,96771.27
2019-05-21T12:20:38.871Z,96771.27
2019-05-21T12:23:11.802Z,96769.92
2019-05-21T12:25:44.672Z,96767.64
2019-05-21T12:28:19.282Z,96770.44
2019-05-21T12:30:53.950Z,96776.92
2019-05-21T12:33:28.674Z,96779.66
2019-05-21T12:36:02.939Z,96780.73
2019-05-21T12:38:37.328Z,96757.34
2019-05-21T12:41:13.731Z,96757.34
2019-05-21T12:43:48.566Z,96781.93
2019-05-21T12:46:23.202Z,96781.93
2019-05-21T12:48:57.554Z,96787.48
2019-05-21T12:51:32.275Z,96787.48
2019-05-21T12:54:06.951Z,96787.13
2019-05-21T12:56:41.447Z,96788.34
2019-05-21T12:59:16.875Z,96788.34
2019-05-21T13:01:51.246Z,96798.66
2019-05-21T13:04:25.617Z,96795.83
2019-05-21T13:06:59.935Z,96799.57
2019-05-21T13:09:34.257Z,96802.53
2019-05-21T13:12:08.879Z,96803.25
2019-05-21T13:14:43.408Z,96812.25
2019-05-21T13:17:17.943Z,96808.81
2019-05-21T13:19:53.638Z,96808.60
2019-05-21T13:22:28.304Z,96808.60
2019-05-21T13:25:02.870Z,96805.13
2019-05-21T13:27:37.267Z,96811.97
2019-05-21T13:30:12.283Z,96811.97
2019-05-21T13:32:46.815Z,96812.37
2019-05-21T13:35:19.854Z,96814.46
2019-05-21T13:37:54.070Z,96819.17
2019-05-21T13:40:29.269Z,96818.08
2019-05-21T13:43:03.660Z,96818.08
2019-05-21T13:45:38.277Z,96826.61
2019-05-21T13:48:12.686Z,96825.86
2019-05-21T13:50:47.293Z,96826.97
2019-05-21T13:53:21.988Z,96827.74
2019-05-21T13:55:56.302Z,96828.77
2019-05-21T13:58:30.717Z,96832.90
2019-05-21T14:01:05.963Z,96832.77
2019-05-21T14:03:42.237Z,96828.83
2019-05-21T14:06:19.982Z,96833.23
2019-05-21T14:08:52.947Z,96835.37
2019-05-21T14:11:28.268Z,96829.84
2019-05-21T14:14:03.272Z,96829.66
2019-05-21T14:16:38.708Z,96828.46
2019-05-21T14:19:13.274Z,96829.77
2019-05-21T14:21:47.717Z,96832.69
2019-05-21T14:24:21.951Z,96833.08
2019-05-21T14:26:56.326Z,96842.48
2019-05-21T14:29:31.144Z,96844.35
2019-05-21T14:32:07.335Z,96838.67
2019-05-21T14:34:42.269Z,96835.07
2019-05-21T14:37:16.739Z,96820.47
2019-05-21T14:39:49.857Z,96833.55
2019-05-21T14:42:23.034Z,96832.38
2019-05-21T14:44:57.264Z,96831.03
2019-05-21T14:47:31.674Z,96833.89
2019-05-21T14:50:06.623Z,96837.97
2019-05-21T14:52:40.953Z,96836.20
2019-05-21T14:55:15.638Z,96830.78
2019-05-21T14:57:50.288Z,96835.74
2019-05-21T15:00:33.393Z,96839.27
2019-05-21T15:03:23.883Z,96839.27
2019-05-21T15:05:44.268Z,96833.17
2019-05-21T15:08:19.263Z,96832.56
2019-05-21T15:10:53.684Z,96825.21
2019-05-21T15:13:28.110Z,96834.30
2019-05-21T15:16:02.671Z,96838.88
2019-05-21T15:18:36.310Z,96838.88
2019-05-21T15:21:25.271Z,96831.06
2019-05-21T15:23:59.662Z,96833.69
2019-05-21T15:26:33.944Z,96837.52
2019-05-21T15:29:08.271Z,96838.63
2019-05-21T15:31:43.152Z,96838.36
2019-05-21T15:34:17.669Z,96836.34
2019-05-21T15:36:51.948Z,96836.34
2019-05-21T15:39:26.274Z,96841.02
2019-05-21T15:42:00.839Z,96837.97
2019-05-21T15:44:35.270Z,96841.11
2019-05-21T15:47:09.708Z,96840.34
2019-05-21T15:49:42.674Z,96842.59
2019-05-21T15:52:16.977Z,96850.63
2019-05-21T15:54:51.404Z,96855.23
2019-05-21T15:57:25.953Z,96855.23
2019-05-21T16:00:00.278Z,96856.38
2019-05-21T16:02:34.730Z,96865.80
2019-05-21T16:05:09.942Z,96864.16
2019-05-21T16:07:44.280Z,96864.16
2019-05-21T16:10:18.828Z,96867.27
2019-05-21T16:12:54.144Z,96866.06
2019-05-21T16:15:29.274Z,96874.56
2019-05-21T16:18:03.687Z,96875.19
2019-05-21T16:20:37.109Z,96871.27
2019-05-21T16:23:12.252Z,96872.78
2019-05-21T16:25:47.354Z,96872.78
2019-05-21T16:28:22.287Z,96874.89
2019-05-21T16:30:57.854Z,96859.11
2019-05-21T16:33:33.575Z,96867.32
2019-05-21T16:36:08.292Z,96867.11
2019-05-21T16:38:42.871Z,96865.88
2019-05-21T16:41:18.181Z,96867.42
2019-05-21T16:43:53.137Z,96862.26
2019-05-21T16:46:30.662Z,96862.53
2019-05-21T16:49:04.328Z,96863.78
2019-05-21T16:51:39.313Z,96866.03
2019-05-21T16:54:15.326Z,96866.58
2019-05-21T16:56:52.086Z,96868.00
2019-05-21T16:59:28.303Z,96868.00
2019-05-21T17:02:03.151Z,96868.26
2019-05-21T17:04:37.730Z,96881.00
2019-05-21T17:07:10.873Z,96881.00
2019-05-21T17:09:45.275Z,96880.09
2019-05-21T17:12:19.713Z,96879.97
2019-05-21T17:14:54.132Z,96884.75
2019-05-21T17:17:28.708Z,96889.83
2019-05-21T17:20:03.529Z,96890.67
2019-05-21T17:22:37.955Z,96893.95
2019-05-21T17:25:12.916Z,96899.17
2019-05-21T17:27:47.284Z,96899.17
2019-05-21T17:30:22.300Z,96902.50
2019-05-21T17:32:57.122Z,96904.73
2019-05-21T17:35:31.904Z,96908.05
2019-05-21T17:38:06.611Z,96909.11
2019-05-21T17:40:41.261Z,96910.70
2019-05-21T17:43:15.700Z,96912.09
2019-05-21T17:45:49.969Z,96906.41
2019-05-21T17:48:24.274Z,96916.74
2019-05-21T17:50:58.958Z,96922.20
2019-05-21T17:53:33.652Z,96932.16
2019-05-21T17:56:08.296Z,96932.16
2019-05-21T17:58:42.796Z,96934.33
2019-05-21T18:01:16.269Z,96943.68
2019-05-21T18:03:51.680Z,96944.28
2019-05-21T18:06:26.135Z,96944.28
2019-05-21T18:09:01.380Z,96963.73
2019-05-21T18:11:37.662Z,96963.73
2019-05-21T18:14:11.310Z,96961.02
2019-05-21T18:16:45.687Z,96965.47
2019-05-21T18:19:21.298Z,96970.47
2019-05-21T18:21:56.266Z,96964.02
2019-05-21T18:24:33.290Z,96966.20
2019-05-21T18:27:41.720Z,96975.13
2019-05-21T18:30:22.334Z,96981.45
2019-05-21T18:32:57.664Z,96983.22
2019-05-21T18:35:32.973Z,96988.98
2019-05-21T18:38:07.769Z,96994.98
2019-05-21T18:40:40.789Z,96994.98
2019-05-21T18:43:15.137Z,96999.95
2019-05-21T18:45:49.746Z,97004.92
2019-05-21T18:48:23.813Z,97002.59
2019-05-21T18:50:58.950Z,97010.08
2019-05-21T18:53:33.287Z,97010.08
2019-05-21T18:56:07.902Z,97021.42
2019-05-21T18:58:42.323Z,97025.14
2019-05-21T19:01:16.958Z,97032.05
2019-05-21T19:03:51.663Z,97041.11
2019-05-21T19:06:24.732Z,97047.08
2019-05-21T19:08:59.120Z,97053.21
2019-05-21T19:11:33.756Z,97051.52
2019-05-21T19:14:08.330Z,97052.23
2019-05-21T19:16:42.957Z,97060.19
2019-05-21T19:19:17.289Z,97073.41
2019-05-21T19:21:51.777Z,97073.41
2019-05-21T19:24:26.306Z,97084.94
2019-05-21T19:27:00.989Z,97088.87
2019-05-21T19:29:35.682Z,97102.20
2019-05-21T19:32:09.701Z,97102.20
2019-05-21T19:34:44.882Z,97113.22
2019-05-21T19:37:19.281Z,97120.99
2019-05-21T19:39:53.735Z,97126.34
2019-05-21T19:42:26.727Z,97135.74
2019-05-21T19:45:01.002Z,97135.30
2019-05-21T19:47:35.662Z,97133.02
2019-05-21T19:50:11.299Z,97133.02
2019-05-21T19:52:45.872Z,97140.47
2019-05-21T19:55:20.283Z,97153.03
2019-05-21T19:57:55.763Z,97153.03
2019-05-21T20:00:31.278Z,97164.89
2019-05-21T20:03:06.556Z,97171.48
2019-05-21T20:05:41.298Z,97171.48
2019-05-21T20:08:16.278Z,97171.68
2019-05-21T20:10:51.283Z,97182.78
2019-05-21T20:13:32.678Z,97187.55
2019-05-21T20:16:03.297Z,97192.70
2019-05-21T20:18:38.115Z,97192.70
2019-05-21T20:21:14.350Z,97184.18
2019-05-21T20:23:49.284Z,97184.18
2019-05-21T20:26:27.373Z,97190.88
2019-05-21T20:29:02.958Z,97198.20
2019-05-21T20:31:39.468Z,97196.71
2019-05-21T20:34:14.392Z,97199.38
2019-05-21T20:36:52.287Z,97209.63
2019-05-21T20:39:27.325Z,97204.36
2019-05-21T20:42:01.784Z,97212.00
2019-05-21T20:44:35.046Z,97213.41
2019-05-21T20:47:10.286Z,97208.20
2019-05-21T20:49:47.503Z,97209.83
2019-05-21T20:52:22.896Z,97205.37
2019-05-21T20:54:57.567Z,97207.62
2019-05-21T20:57:31.959Z,97218.92
2019-05-21T21:00:07.294Z,97219.75
2019-05-21T21:02:42.037Z,97223.91
2019-05-21T21:05:15.416Z,97227.41
2019-05-21T21:07:50.063Z,97229.69
2019-05-21T21:10:24.828Z,97225.42
2019-05-21T21:12:59.013Z,97229.27
2019-05-21T21:15:34.648Z,97231.67
2019-05-21T21:18:09.297Z,97231.67
2019-05-21T21:20:44.121Z,97238.22
2019-05-21T21:23:20.720Z,97238.94
2019-05-21T21:25:53.713Z,97238.94
2019-05-21T21:28:27.966Z,97242.50
2019-05-21T21:31:03.294Z,97245.67
2019-05-21T21:33:38.385Z,97245.67
2019-05-21T21:36:13.290Z,97239.39
2019-05-21T21:38:48.399Z,97241.14
2019-05-21T21:41:23.293Z,97242.61
2019-05-21T21:43:57.702Z,97245.48
2019-05-21T21:46:32.136Z,97243.25
2019-05-21T21:49:08.379Z,97249.91
2019-05-21T21:51:42.959Z,97249.91
2019-05-21T21:54:17.441Z,97248.63
2019-05-21T21:56:51.943Z,97260.89
2019-05-21T21:59:28.372Z,97262.28
2019-05-21T22:02:16.293Z,97266.86
2019-05-21T22:04:51.702Z,97270.53
2019-05-21T22:07:28.298Z,97269.09
2019-05-21T22:10:02.806Z,97267.38
2019-05-21T22:12:38.408Z,97271.97
2019-05-21T22:15:12.900Z,97271.97
2019-05-21T22:17:47.404Z,97269.28
2019-05-21T22:20:22.300Z,97275.78
2019-05-21T22:23:13.281Z,97279.07
2019-05-21T22:25:48.880Z,97273.05
2019-05-21T22:28:22.527Z,97273.05
2019-05-21T22:30:57.492Z,97271.51
2019-05-21T22:33:32.273Z,97263.83
2019-05-21T22:36:08.138Z,97263.83
2019-05-21T22:38:42.691Z,97259.39
2019-05-21T22:41:16.667Z,97263.28
2019-05-21T22:43:50.916Z,97266.77
2019-05-21T22:46:25.426Z,97264.16
2019-05-21T22:48:59.866Z,97265.28
2019-05-21T22:51:34.289Z,97262.01
2019-05-21T22:54:08.857Z,97265.22
2019-05-21T22:56:43.431Z,97267.08
2019-05-21T22:59:21.783Z,97273.77
2019-05-21T23:01:58.111Z,97273.77
2019-05-21T23:04:32.717Z,97269.81
2019-05-21T23:07:08.948Z,97279.08
2019-05-21T23:09:43.278Z,97279.08
2019-05-21T23:12:18.613Z,97271.84
2019-05-21T23:14:53.281Z,97284.67
2019-05-21T23:17:27.863Z,97281.45
2019-05-21T23:20:08.486Z,97280.17
2019-05-21T23:22:47.326Z,97280.99
2019-05-21T23:25:22.763Z,97280.99
2019-05-21T23:27:57.394Z,97274.83
2019-05-21T23:30:32.288Z,97278.95
2019-05-21T23:33:07.303Z,97274.48
2019-05-21T23:35:42.945Z,97274.48
2019-05-21T23:38:18.691Z,97272.20
2019-05-21T23:40:53.790Z,97278.43
2019-05-21T23:43:28.280Z,97269.53
2019-05-21T23:46:03.289Z,97274.54
2019-05-21T23:48:38.430Z,97266.48
2019-05-21T23:51:12.883Z,97266.48
2019-05-21T23:53:47.317Z,97281.97
2019-05-21T23:56:21.755Z,97275.33
2019-05-21T23:58:57.789Z,97275.16
